Decoded Metar for KUKF (WILKESBORO in NC, USA) (IATA:UKF) | Meteo·Mobile Aviation Weather
aviador You're here:

KUKF Decoded Metar

WILKESBORO in NC, USA
Report Time2018-09-24 19:45:00
UTC Time2018-09-24 20:03:34
Flight Rules ifr IFR
Wind110° at 03 kt
W.Decomp.*RWY 19: 0.8 kt HW 2.9 kt LCW
W.Rank110° ranks 28
Current wind is below 110° avg. (4.2)
Visibility9999 m
Phenomena:N/A
Clouds:Overcast 007 Hf
Ceiling700 ft
Temp18°C (ISA +6)
Dew Point18°C (100% RH)
QNH1026 hPa
Density Alt1,798 ft
Elevation1,299 ft
Report Wrong Elevation
Raw Report
METAR KUKF 241945Z AUTO 11003KT 10SM OVC007 18/18 A3030 RMK AO2=

Extra information for KUKF:More info

Metar Taf Metar & Taf Last 4 Metars F.Rules Stats Wind Profile Meteogram Temp Stats Airport Information Weather charts Add Link Nearby VenuesMetar ALERT Operation Metar Decoded Social comments

AIRNAV info for KUKF